Warning: Javascript must be enabled to use all the features on this page!


Page Loading - Please Wait...

Click to hideNews Bulletins

Peak Streamflow for the Nation

USGS 04270200 LITTLE SALMON RIVER AT BOMBAY NY

Franklin County, New York
Hydrologic Unit Code 04150307
Latitude  44°56'24", Longitude  74°33'25" NAD83
Drainage area 92.2  square miles
Gage datum 173.56 feet above NAVD88
Output formats
Table
Graph
Tab-separated file
peakfq (watstore) format
Reselect output format
Water
Year
Date Gage
Height
(feet)
Stream-
flow
(cfs)
1959 1959-04-06 7.002 1,130
1960 1960-04-04 12.401 1,8002
1961 1961-03-29 12.351 1,7502
1962 1962-08-08 9.26 1,780
1963 1963-03-30 11.771,2 2,7002
1964 1964-03-06 8.531 8002
1965 1965-04-12 6.642 972
1966 1965-11-27 7.652 1,280
1967 1967-04-18 6.762 999
1968 1968-03-21 9.191,2 1,400
1969 1969-04-05 7.942 1,360
1970 1970-05-23 10.15 2,140
1971 1971-05-04 8.632 1,570
1972 1972-04-14 9.222 1,770
1973 1973-04-02 10.102 2,040
1974 1974-04-04 12.90 3,250
1975 1975-04-19 11.28 2,510
1976 1976-05-20 10.042 2,020
1977 1976-10-10 8.802 1,580
1978 1978-04-12 11.282 2,560
1979 1979-09-15 9.012 1,460
1980 1979-11-27 8.602 1,330
1981 1980-12-09 11.17 2,480
1982 1981-10-28 10.78 1,990
1983 1983-02-03 9.83 1,990
1984 1984-02-15 12.001 2,4002
1985 1985-02-25 12.305 3,0002
1986 1986-03-20 12.58 3,170
1987 1986-12-03 9.16 1,750
1988 1988-03-26 8.27 1,440
1989 1988-11-06 10.302 2,170
1990 1990-03-17 8.93 1,670
1991 1991-04-10 9.842 2,000
1992 1992-03-11 12.511 1,0002
1993 1993-04-25 11.62 2,700
1994 1994-04-10 7.732 1,210
1995 1995-01-16 9.341 1,0002
1996 1996-01-19 9.21 1,770
1997 1996-11-09 10.82 2,370
1998 1998-03-31 13.27 3,420
2002 2002-06-12 9.62 1,920
2003 2003-06-14 8.452 1,470
2004 2004-03-27 10.30 2,170
2005 2005-04-03 9.71 1,950
2006 2005-10-08 7.822 1,240
2007 2006-12-02 9.222 1,770
2008 2008-04-12 8.952 1,660
2009 2008-11-16 7.282 1,060
2010 2010-01-26 8.851 1,4002
2011 2010-10-01 11.642 2,490
2012 2012-04-23 6.472 820
2013 2013-06-12 11.92 2,650
2014 2014-04-16 10.352 2,160
2015 2014-12-25 9.26 1,810
2016 2016-04-08 7.412 1,130
2017 2017-04-07 10.28 2,100
2018 2018-06-19 11.012 2,380
2019 2019-04-20 10.262 2,090
2020 2020-01-12 10.72 2,270
2021 2021-05-01 7.182 1,070
?
  Peak Gage-Height Qualification Codes.
?
  Peak Streamflow Qualification Codes.